sensor_id;sensor_type;location;lat;lon;timestamp;pressure;altitude;pressure_sealevel;temperature;humidity
23241;BME280;11789;53.482;9.862;2023-12-20T00:01:39;101058.28;;;4.56;100.00
23241;BME280;11789;53.482;9.862;2023-12-20T00:04:05;101059.94;;;4.56;100.00
23241;BME280;11789;53.482;9.862;2023-12-20T00:06:31;101053.03;;;4.52;100.00
23241;BME280;11789;53.482;9.862;2023-12-20T00:08:56;101048.66;;;4.49;100.00
23241;BME280;11789;53.482;9.862;2023-12-20T00:11:23;101045.25;;;4.49;100.00
23241;BME280;11789;53.482;9.862;2023-12-20T00:13:49;101046.06;;;4.48;100.00
23241;BME280;11789;53.482;9.862;2023-12-20T00:16:14;101046.91;;;4.47;100.00
23241;BME280;11789;53.482;9.862;2023-12-20T00:18:40;101053.66;;;4.45;100.00
23241;BME280;11789;53.482;9.862;2023-12-20T00:21:05;101050.22;;;4.42;100.00
23241;BME280;11789;53.482;9.862;2023-12-20T00:23:30;101042.53;;;4.42;100.00
23241;BME280;11789;53.482;9.862;2023-12-20T00:25:56;101041.56;;;4.39;100.00
23241;BME280;11789;53.482;9.862;2023-12-20T00:28:21;101045.06;;;4.41;100.00
23241;BME280;11789;53.482;9.862;2023-12-20T00:30:47;101045.84;;;4.40;100.00
23241;BME280;11789;53.482;9.862;2023-12-20T00:33:13;101038.19;;;4.40;100.00
23241;BME280;11789;53.482;9.862;2023-12-20T00:35:38;101041.59;;;4.40;100.00
23241;BME280;11789;53.482;9.862;2023-12-20T00:38:04;101037.41;;;4.42;100.00
23241;BME280;11789;53.482;9.862;2023-12-20T00:40:30;101034.00;;;4.43;100.00
23241;BME280;11789;53.482;9.862;2023-12-20T00:42:55;101032.34;;;4.46;100.00
23241;BME280;11789;53.482;9.862;2023-12-20T00:45:21;101028.12;;;4.46;100.00
23241;BME280;11789;53.482;9.862;2023-12-20T00:47:46;101029.00;;;4.47;100.00
23241;BME280;11789;53.482;9.862;2023-12-20T00:50:12;101027.31;;;4.49;100.00
23241;BME280;11789;53.482;9.862;2023-12-20T00:52:37;101022.22;;;4.50;100.00
23241;BME280;11789;53.482;9.862;2023-12-20T00:55:04;101019.66;;;4.49;100.00
23241;BME280;11789;53.482;9.862;2023-12-20T00:57:29;101005.97;;;4.48;100.00
23241;BME280;11789;53.482;9.862;2023-12-20T00:59:54;101009.38;;;4.47;100.00
23241;BME280;11789;53.482;9.862;2023-12-20T01:02:20;101005.03;;;4.45;100.00
23241;BME280;11789;53.482;9.862;2023-12-20T01:04:45;101008.38;;;4.42;100.00
23241;BME280;11789;53.482;9.862;2023-12-20T01:07:11;101004.09;;;4.41;100.00
23241;BME280;11789;53.482;9.862;2023-12-20T01:09:36;100996.31;;;4.38;100.00
23241;BME280;11789;53.482;9.862;2023-12-20T01:12:02;101003.16;;;4.37;100.00
23241;BME280;11789;53.482;9.862;2023-12-20T01:14:27;101001.41;;;4.36;100.00
23241;BME280;11789;53.482;9.862;2023-12-20T01:16:53;100991.94;;;4.34;100.00
23241;BME280;11789;53.482;9.862;2023-12-20T01:19:18;100990.25;;;4.34;100.00
23241;BME280;11789;53.482;9.862;2023-12-20T01:21:43;100989.25;;;4.29;100.00
23241;BME280;11789;53.482;9.862;2023-12-20T01:24:09;100983.19;;;4.26;100.00
23241;BME280;11789;53.482;9.862;2023-12-20T01:26:34;100985.72;;;4.24;100.00
23241;BME280;11789;53.482;9.862;2023-12-20T01:29:00;100984.00;;;4.23;100.00
23241;BME280;11789;53.482;9.862;2023-12-20T01:31:26;100985.72;;;4.24;100.00
23241;BME280;11789;53.482;9.862;2023-12-20T01:33:52;100989.87;;;4.21;100.00
23241;BME280;11789;53.482;9.862;2023-12-20T01:36:18;100987.31;;;4.21;100.00
23241;BME280;11789;53.482;9.862;2023-12-20T01:38:43;100992.50;;;4.22;100.00
23241;BME280;11789;53.482;9.862;2023-12-20T01:41:08;100988.22;;;4.21;100.00
23241;BME280;11789;53.482;9.862;2023-12-20T01:43:34;100981.34;;;4.20;100.00
23241;BME280;11789;53.482;9.862;2023-12-20T01:46:00;100987.28;;;4.19;100.00
23241;BME280;11789;53.482;9.862;2023-12-20T01:48:26;100982.16;;;4.19;100.00
23241;BME280;11789;53.482;9.862;2023-12-20T01:50:53;100972.75;;;4.18;100.00
23241;BME280;11789;53.482;9.862;2023-12-20T01:53:21;100971.03;;;4.17;100.00
23241;BME280;11789;53.482;9.862;2023-12-20T01:55:50;100971.78;;;4.13;100.00
23241;BME280;11789;53.482;9.862;2023-12-20T01:58:16;100971.78;;;4.13;100.00
23241;BME280;11789;53.482;9.862;2023-12-20T02:00:42;100976.88;;;4.13;100.00
23241;BME280;11789;53.482;9.862;2023-12-20T02:03:08;100973.38;;;4.09;100.00
23241;BME280;11789;53.482;9.862;2023-12-20T02:05:34;100962.25;;;4.07;100.00
23241;BME280;11789;53.482;9.862;2023-12-20T02:08:00;100966.53;;;4.08;100.00
23241;BME280;11789;53.482;9.862;2023-12-20T02:10:27;100956.25;;;4.07;100.00
23241;BME280;11789;53.482;9.862;2023-12-20T02:12:52;100960.56;;;4.08;100.00
23241;BME280;11789;53.482;9.862;2023-12-20T02:15:18;100955.44;;;4.08;100.00
23241;BME280;11789;53.482;9.862;2023-12-20T02:17:45;100957.19;;;4.10;100.00
23241;BME280;11789;53.482;9.862;2023-12-20T02:20:11;100952.91;;;4.09;100.00
23241;BME280;11789;53.482;9.862;2023-12-20T02:22:36;100953.78;;;4.10;100.00
23241;BME280;11789;53.482;9.862;2023-12-20T02:25:02;100943.50;;;4.08;100.00
23241;BME280;11789;53.482;9.862;2023-12-20T02:27:27;100940.12;;;4.09;100.00
23241;BME280;11789;53.482;9.862;2023-12-20T02:29:54;100940.12;;;4.09;100.00
23241;BME280;11789;53.482;9.862;2023-12-20T02:32:20;100939.25;;;4.09;100.00
23241;BME280;11789;53.482;9.862;2023-12-20T02:34:48;100935.00;;;4.09;100.00
23241;BME280;11789;53.482;9.862;2023-12-20T02:37:13;100930.75;;;4.10;100.00
23241;BME280;11789;53.482;9.862;2023-12-20T02:39:39;100934.97;;;4.08;100.00
23241;BME280;11789;53.482;9.862;2023-12-20T02:42:04;100923.91;;;4.09;100.00
23241;BME280;11789;53.482;9.862;2023-12-20T02:44:30;100931.56;;;4.09;100.00
23241;BME280;11789;53.482;9.862;2023-12-20T02:46:55;100917.06;;;4.08;100.00
23241;BME280;11789;53.482;9.862;2023-12-20T02:49:21;100923.84;;;4.06;100.00
23241;BME280;11789;53.482;9.862;2023-12-20T02:51:46;100928.06;;;4.05;100.00
23241;BME280;11789;53.482;9.862;2023-12-20T02:54:12;100911.84;;;4.05;100.00
23241;BME280;11789;53.482;9.862;2023-12-20T02:56:37;100916.91;;;4.02;100.00
23241;BME280;11789;53.482;9.862;2023-12-20T02:59:03;100901.47;;;3.99;100.00
23241;BME280;11789;53.482;9.862;2023-12-20T03:01:31;100904.03;;;3.99;100.00
23241;BME280;11789;53.482;9.862;2023-12-20T03:03:56;100898.91;;;3.99;100.00
23241;BME280;11789;53.482;9.862;2023-12-20T03:06:22;100897.19;;;3.98;100.00
23241;BME280;11789;53.482;9.862;2023-12-20T03:08:47;100904.13;;;4.02;100.00
23241;BME280;11789;53.482;9.862;2023-12-20T03:11:13;100903.19;;;4.00;100.00
23241;BME280;11789;53.482;9.862;2023-12-20T03:13:38;100908.41;;;4.03;100.00
23241;BME280;11789;53.482;9.862;2023-12-20T03:16:11;100898.19;;;4.04;100.00
23241;BME280;11789;53.482;9.862;2023-12-20T03:18:37;100893.12;;;4.06;100.00
23241;BME280;11789;53.482;9.862;2023-12-20T03:21:03;100894.03;;;4.08;100.00
23241;BME280;11789;53.482;9.862;2023-12-20T03:23:29;100890.66;;;4.09;100.00
23241;BME280;11789;53.482;9.862;2023-12-20T03:25:56;100890.66;;;4.09;100.00
23241;BME280;11789;53.482;9.862;2023-12-20T03:28:21;100882.97;;;4.09;100.00
23241;BME280;11789;53.482;9.862;2023-12-20T03:30:48;100879.66;;;4.13;100.00
23241;BME280;11789;53.482;9.862;2023-12-20T03:33:13;100880.53;;;4.13;100.00
23241;BME280;11789;53.482;9.862;2023-12-20T03:35:39;100893.34;;;4.15;100.00
23241;BME280;11789;53.482;9.862;2023-12-20T03:38:04;100887.44;;;4.16;100.00
23241;BME280;11789;53.482;9.862;2023-12-20T03:40:30;100887.47;;;4.18;100.00
23241;BME280;11789;53.482;9.862;2023-12-20T03:42:55;100889.22;;;4.20;100.00
23241;BME280;11789;53.482;9.862;2023-12-20T03:45:21;100883.31;;;4.21;100.00
23241;BME280;11789;53.482;9.862;2023-12-20T03:47:46;100887.53;;;4.21;100.00
23241;BME280;11789;53.482;9.862;2023-12-20T03:50:12;100876.41;;;4.20;100.00
23241;BME280;11789;53.482;9.862;2023-12-20T03:52:37;100872.13;;;4.19;100.00
23241;BME280;11789;53.482;9.862;2023-12-20T03:55:03;100867.94;;;4.21;100.00
23241;BME280;11789;53.482;9.862;2023-12-20T03:57:28;100866.25;;;4.22;100.00
23241;BME280;11789;53.482;9.862;2023-12-20T03:59:54;100856.91;;;4.24;100.00
23241;BME280;11789;53.482;9.862;2023-12-20T04:02:19;100860.31;;;4.24;100.00
23241;BME280;11789;53.482;9.862;2023-12-20T04:04:44;100856.03;;;4.23;100.00
23241;BME280;11789;53.482;9.862;2023-12-20T04:07:10;100854.37;;;4.25;100.00
23241;BME280;11789;53.482;9.862;2023-12-20T04:09:35;100853.50;;;4.25;100.00
23241;BME280;11789;53.482;9.862;2023-12-20T04:12:01;100854.34;;;4.24;100.00
23241;BME280;11789;53.482;9.862;2023-12-20T04:14:26;100836.53;;;4.27;100.00
23241;BME280;11789;53.482;9.862;2023-12-20T04:16:52;100835.66;;;4.26;100.00
23241;BME280;11789;53.482;9.862;2023-12-20T04:19:17;100836.53;;;4.27;100.00
23241;BME280;11789;53.482;9.862;2023-12-20T04:21:43;100840.81;;;4.28;100.00
23241;BME280;11789;53.482;9.862;2023-12-20T04:24:08;100844.25;;;4.30;100.00
23241;BME280;11789;53.482;9.862;2023-12-20T04:26:34;100834.06;;;4.31;100.00
23241;BME280;11789;53.482;9.862;2023-12-20T04:28:59;100826.44;;;4.33;100.00
23241;BME280;11789;53.482;9.862;2023-12-20T04:31:24;100834.94;;;4.32;100.00
23241;BME280;11789;53.482;9.862;2023-12-20T04:33:50;100819.59;;;4.32;100.00
23241;BME280;11789;53.482;9.862;2023-12-20T04:36:15;100820.47;;;4.34;100.00
23241;BME280;11789;53.482;9.862;2023-12-20T04:38:41;100823.13;;;4.37;100.00
23241;BME280;11789;53.482;9.862;2023-12-20T04:41:06;100825.69;;;4.37;100.00
23241;BME280;11789;53.482;9.862;2023-12-20T04:43:32;100812.03;;;4.36;100.00
23241;BME280;11789;53.482;9.862;2023-12-20T04:45:58;100810.25;;;4.35;100.00
23241;BME280;11789;53.482;9.862;2023-12-20T04:48:23;100810.31;;;4.37;100.00
23241;BME280;11789;53.482;9.862;2023-12-20T04:50:48;100812.91;;;4.38;100.00
23241;BME280;11789;53.482;9.862;2023-12-20T04:53:14;100812.06;;;4.39;100.00
23241;BME280;11789;53.482;9.862;2023-12-20T04:55:39;100806.13;;;4.40;100.00
23241;BME280;11789;53.482;9.862;2023-12-20T04:58:05;100795.94;;;4.42;100.00
23241;BME280;11789;53.482;9.862;2023-12-20T05:00:30;100795.97;;;4.43;100.00
23241;BME280;11789;53.482;9.862;2023-12-20T05:02:56;100800.19;;;4.41;100.00
23241;BME280;11789;53.482;9.862;2023-12-20T05:05:22;100788.28;;;4.43;100.00
23241;BME280;11789;53.482;9.862;2023-12-20T05:07:47;100800.25;;;4.45;100.00
23241;BME280;11789;53.482;9.862;2023-12-20T05:10:12;100797.75;;;4.46;100.00
23241;BME280;11789;53.482;9.862;2023-12-20T05:12:38;100785.75;;;4.45;100.00
23241;BME280;11789;53.482;9.862;2023-12-20T05:15:05;100793.41;;;4.43;100.00
23241;BME280;11789;53.482;9.862;2023-12-20T05:17:31;100790.00;;;4.45;100.00
23241;BME280;11789;53.482;9.862;2023-12-20T05:19:56;100774.66;;;4.45;100.00
23241;BME280;11789;53.482;9.862;2023-12-20T05:22:22;100781.44;;;4.42;100.00
23241;BME280;11789;53.482;9.862;2023-12-20T05:24:47;100781.41;;;4.41;100.00
23241;BME280;11789;53.482;9.862;2023-12-20T05:27:13;100787.41;;;4.43;100.00
23241;BME280;11789;53.482;9.862;2023-12-20T05:29:39;100778.12;;;4.47;100.00
23241;BME280;11789;53.482;9.862;2023-12-20T05:32:04;100778.12;;;4.47;100.00
23241;BME280;11789;53.482;9.862;2023-12-20T05:34:30;100771.34;;;4.50;100.00
23241;BME280;11789;53.482;9.862;2023-12-20T05:36:57;100768.00;;;4.53;100.00
23241;BME280;11789;53.482;9.862;2023-12-20T05:39:23;100773.13;;;4.53;100.00
23241;BME280;11789;53.482;9.862;2023-12-20T05:41:48;100775.75;;;4.56;100.00
23241;BME280;11789;53.482;9.862;2023-12-20T05:44:14;100769.81;;;4.57;100.00
23241;BME280;11789;53.482;9.862;2023-12-20T05:46:39;100771.56;;;4.59;100.00
23241;BME280;11789;53.482;9.862;2023-12-20T05:49:05;100775.06;;;4.63;100.00
23241;BME280;11789;53.482;9.862;2023-12-20T05:51:31;100763.88;;;4.59;100.00
23241;BME280;11789;53.482;9.862;2023-12-20T05:53:56;100763.84;;;4.58;100.00
23241;BME280;11789;53.482;9.862;2023-12-20T05:56:22;100770.69;;;4.57;100.00
23241;BME280;11789;53.482;9.862;2023-12-20T05:58:47;100758.72;;;4.56;100.00
23241;BME280;11789;53.482;9.862;2023-12-20T06:01:14;100756.06;;;4.53;100.00
23241;BME280;11789;53.482;9.862;2023-12-20T06:03:43;100762.91;;;4.53;100.00
23241;BME280;11789;53.482;9.862;2023-12-20T06:06:09;100763.00;;;4.57;100.00
23241;BME280;11789;53.482;9.862;2023-12-20T06:08:35;100756.19;;;4.58;100.00
23241;BME280;11789;53.482;9.862;2023-12-20T06:11:01;100754.38;;;4.54;100.00
23241;BME280;11789;53.482;9.862;2023-12-20T06:13:26;100762.94;;;4.56;100.00
23241;BME280;11789;53.482;9.862;2023-12-20T06:15:53;100764.72;;;4.58;100.00
23241;BME280;11789;53.482;9.862;2023-12-20T06:18:19;100751.94;;;4.60;100.00
23241;BME280;11789;53.482;9.862;2023-12-20T06:20:44;100750.34;;;4.65;100.00
23241;BME280;11789;53.482;9.862;2023-12-20T06:23:10;100752.03;;;4.64;100.00
23241;BME280;11789;53.482;9.862;2023-12-20T06:25:35;100753.75;;;4.64;100.00
23241;BME280;11789;53.482;9.862;2023-12-20T06:28:01;100751.19;;;4.64;100.00
23241;BME280;11789;53.482;9.862;2023-12-20T06:30:26;100740.88;;;4.61;100.00
23241;BME280;11789;53.482;9.862;2023-12-20T06:32:53;100736.62;;;4.61;100.00
23241;BME280;11789;53.482;9.862;2023-12-20T06:35:19;100744.38;;;4.66;100.00
23241;BME280;11789;53.482;9.862;2023-12-20T06:37:45;100743.59;;;4.67;100.00
23241;BME280;11789;53.482;9.862;2023-12-20T06:40:10;100734.97;;;4.65;100.00
23241;BME280;11789;53.482;9.862;2023-12-20T06:42:36;100730.69;;;4.62;100.00
23241;BME280;11789;53.482;9.862;2023-12-20T06:45:02;100729.81;;;4.62;100.00
23241;BME280;11789;53.482;9.862;2023-12-20T06:47:27;100727.25;;;4.62;100.00
23241;BME280;11789;53.482;9.862;2023-12-20T06:49:53;100726.34;;;4.60;100.00
23241;BME280;11789;53.482;9.862;2023-12-20T06:52:18;100717.00;;;4.62;100.00
23241;BME280;11789;53.482;9.862;2023-12-20T06:54:44;100709.34;;;4.62;100.00
23241;BME280;11789;53.482;9.862;2023-12-20T06:57:09;100718.75;;;4.63;100.00
23241;BME280;11789;53.482;9.862;2023-12-20T06:59:39;100705.91;;;4.61;100.00
23241;BME280;11789;53.482;9.862;2023-12-20T07:02:05;100703.28;;;4.60;100.00
23241;BME280;11789;53.482;9.862;2023-12-20T07:04:31;100695.66;;;4.61;100.00
23241;BME280;11789;53.482;9.862;2023-12-20T07:06:56;100685.44;;;4.61;100.00
23241;BME280;11789;53.482;9.862;2023-12-20T07:09:25;100685.38;;;4.60;100.00
23241;BME280;11789;53.482;9.862;2023-12-20T07:11:51;100683.63;;;4.57;100.00
23241;BME280;11789;53.482;9.862;2023-12-20T07:14:16;100687.06;;;4.58;100.00
23241;BME280;11789;53.482;9.862;2023-12-20T07:16:41;100689.72;;;4.64;100.00
23241;BME280;11789;53.482;9.862;2023-12-20T07:19:07;100676.81;;;4.58;100.00
23241;BME280;11789;53.482;9.862;2023-12-20T07:21:32;100679.41;;;4.61;100.00
23241;BME280;11789;53.482;9.862;2023-12-20T07:23:58;100673.50;;;4.62;100.00
23241;BME280;11789;53.482;9.862;2023-12-20T07:26:23;100682.06;;;4.64;100.00
23241;BME280;11789;53.482;9.862;2023-12-20T07:28:49;100686.34;;;4.65;100.00
23241;BME280;11789;53.482;9.862;2023-12-20T07:31:18;100682.91;;;4.64;100.00
23241;BME280;11789;53.482;9.862;2023-12-20T07:33:43;100678.66;;;4.65;100.00
23241;BME280;11789;53.482;9.862;2023-12-20T07:36:09;100684.69;;;4.67;100.00
23241;BME280;11789;53.482;9.862;2023-12-20T07:38:34;100681.31;;;4.69;100.00
23241;BME280;11789;53.482;9.862;2023-12-20T07:41:00;100676.22;;;4.71;100.00
23241;BME280;11789;53.482;9.862;2023-12-20T07:43:25;100679.72;;;4.76;100.00
23241;BME280;11789;53.482;9.862;2023-12-20T07:45:51;100682.25;;;4.75;100.00
23241;BME280;11789;53.482;9.862;2023-12-20T07:48:16;100672.03;;;4.76;100.00
23241;BME280;11789;53.482;9.862;2023-12-20T07:50:42;100667.75;;;4.75;100.00
23241;BME280;11789;53.482;9.862;2023-12-20T07:53:08;100660.06;;;4.75;100.00
23241;BME280;11789;53.482;9.862;2023-12-20T07:55:33;100668.69;;;4.79;100.00
23241;BME280;11789;53.482;9.862;2023-12-20T07:58:00;100661.00;;;4.77;100.00
23241;BME280;11789;53.482;9.862;2023-12-20T08:00:26;100660.16;;;4.80;100.00
23241;BME280;11789;53.482;9.862;2023-12-20T08:02:51;100664.44;;;4.79;100.00
23241;BME280;11789;53.482;9.862;2023-12-20T08:05:17;100671.28;;;4.80;100.00
23241;BME280;11789;53.482;9.862;2023-12-20T08:07:42;100667.87;;;4.81;100.00
23241;BME280;11789;53.482;9.862;2023-12-20T08:10:08;100667.09;;;4.84;100.00
23241;BME280;11789;53.482;9.862;2023-12-20T08:12:34;100658.66;;;4.91;100.00
23241;BME280;11789;53.482;9.862;2023-12-20T08:14:59;100659.53;;;4.91;100.00
23241;BME280;11789;53.482;9.862;2023-12-20T08:17:25;100653.59;;;4.92;100.00
23241;BME280;11789;53.482;9.862;2023-12-20T08:19:51;100645.91;;;4.92;100.00
23241;BME280;11789;53.482;9.862;2023-12-20T08:22:16;100648.50;;;4.95;100.00
23241;BME280;11789;53.482;9.862;2023-12-20T08:24:42;100646.03;;;4.99;100.00
23241;BME280;11789;53.482;9.862;2023-12-20T08:27:07;100629.81;;;5.00;100.00
23241;BME280;11789;53.482;9.862;2023-12-20T08:29:34;100622.19;;;5.03;100.00
23241;BME280;11789;53.482;9.862;2023-12-20T08:32:00;100627.31;;;5.03;100.00
23241;BME280;11789;53.482;9.862;2023-12-20T08:34:25;100623.94;;;5.05;100.00
23241;BME280;11789;53.482;9.862;2023-12-20T08:36:51;100618.81;;;5.07;100.00
23241;BME280;11789;53.482;9.862;2023-12-20T08:39:17;100623.94;;;5.07;100.00
23241;BME280;11789;53.482;9.862;2023-12-20T08:41:42;100617.19;;;5.10;100.00
23241;BME280;11789;53.482;9.862;2023-12-20T08:44:09;100607.84;;;5.12;100.00
23241;BME280;11789;53.482;9.862;2023-12-20T08:46:34;100598.47;;;5.16;100.00
23241;BME280;11789;53.482;9.862;2023-12-20T08:49:01;100603.69;;;5.19;100.00
23241;BME280;11789;53.482;9.862;2023-12-20T08:51:26;100605.47;;;5.23;100.00
23241;BME280;11789;53.482;9.862;2023-12-20T08:53:53;100608.88;;;5.22;100.00
23241;BME280;11789;53.482;9.862;2023-12-20T08:56:19;100604.47;;;5.16;100.00
23241;BME280;11789;53.482;9.862;2023-12-20T08:58:45;100609.50;;;5.12;100.00
23241;BME280;11789;53.482;9.862;2023-12-20T09:01:12;100609.47;;;5.07;100.00
23241;BME280;11789;53.482;9.862;2023-12-20T09:03:37;100598.28;;;5.02;100.00
23241;BME280;11789;53.482;9.862;2023-12-20T09:06:03;100593.84;;;4.95;100.00
23241;BME280;11789;53.482;9.862;2023-12-20T09:08:28;100584.53;;;4.97;100.00
23241;BME280;11789;53.482;9.862;2023-12-20T09:10:54;100580.97;;;4.90;100.00
23241;BME280;11789;53.482;9.862;2023-12-20T09:13:19;100575.81;;;4.87;100.00
23241;BME280;11789;53.482;9.862;2023-12-20T09:15:46;100581.69;;;4.83;100.00
23241;BME280;11789;53.482;9.862;2023-12-20T09:18:12;100611.50;;;4.78;100.00
23241;BME280;11789;53.482;9.862;2023-12-20T09:20:37;100613.87;;;4.71;100.00
23241;BME280;11789;53.482;9.862;2023-12-20T09:23:03;100619.75;;;4.65;100.00
23241;BME280;11789;53.482;9.862;2023-12-20T09:25:28;100644.47;;;4.61;100.00
23241;BME280;11789;53.482;9.862;2023-12-20T09:27:55;100648.66;;;4.59;100.00
23241;BME280;11789;53.482;9.862;2023-12-20T09:30:20;100639.25;;;4.57;100.00
23241;BME280;11789;53.482;9.862;2023-12-20T09:32:46;100652.06;;;4.57;100.00
23241;BME280;11789;53.482;9.862;2023-12-20T09:35:11;100640.00;;;4.53;100.00
23241;BME280;11789;53.482;9.862;2023-12-20T09:37:37;100616.97;;;4.51;100.00
23241;BME280;11789;53.482;9.862;2023-12-20T09:40:03;100610.94;;;4.51;100.00
23241;BME280;11789;53.482;9.862;2023-12-20T09:42:47;100621.16;;;4.49;100.00
23241;BME280;11789;53.482;9.862;2023-12-20T09:45:15;100622.78;;;4.46;100.00
23241;BME280;11789;53.482;9.862;2023-12-20T09:47:43;100633.81;;;4.41;100.00
23241;BME280;11789;53.482;9.862;2023-12-20T09:50:09;100632.12;;;4.42;100.00
23241;BME280;11789;53.482;9.862;2023-12-20T09:52:36;100636.31;;;4.40;100.00
23241;BME280;11789;53.482;9.862;2023-12-20T09:55:03;100649.12;;;4.40;100.00
23241;BME280;11789;53.482;9.862;2023-12-20T09:57:31;100642.31;;;4.40;100.00
23241;BME280;11789;53.482;9.862;2023-12-20T09:59:57;100640.59;;;4.39;100.00
23241;BME280;11789;53.482;9.862;2023-12-20T10:02:25;100633.78;;;4.40;100.00
23241;BME280;11789;53.482;9.862;2023-12-20T10:04:53;100638.09;;;4.42;100.00
23241;BME280;11789;53.482;9.862;2023-12-20T10:07:19;100624.50;;;4.45;100.00
23241;BME280;11789;53.482;9.862;2023-12-20T10:09:46;100621.94;;;4.45;100.00
23241;BME280;11789;53.482;9.862;2023-12-20T10:12:12;100622.78;;;4.44;100.00
23241;BME280;11789;53.482;9.862;2023-12-20T10:14:39;100631.31;;;4.45;100.00
23241;BME280;11789;53.482;9.862;2023-12-20T10:17:05;100641.53;;;4.45;100.00
23241;BME280;11789;53.482;9.862;2023-12-20T10:19:32;100641.53;;;4.45;100.00
23241;BME280;11789;53.482;9.862;2023-12-20T10:21:59;100644.19;;;4.49;100.00
23241;BME280;11789;53.482;9.862;2023-12-20T10:24:25;100661.34;;;4.52;100.00
23241;BME280;11789;53.482;9.862;2023-12-20T10:27:03;100651.97;;;4.54;100.00
23241;BME280;11789;53.482;9.862;2023-12-20T10:29:36;100655.34;;;4.51;100.00
23241;BME280;11789;53.482;9.862;2023-12-20T10:32:22;100658.63;;;4.46;100.00
23241;BME280;11789;53.482;9.862;2023-12-20T10:34:49;100638.94;;;4.41;100.00
23241;BME280;11789;53.482;9.862;2023-12-20T10:37:15;100638.78;;;4.35;100.00
23241;BME280;11789;53.482;9.862;2023-12-20T10:39:42;100631.94;;;4.33;100.00
23241;BME280;11789;53.482;9.862;2023-12-20T10:42:12;100631.91;;;4.31;100.00
23241;BME280;11789;53.482;9.862;2023-12-20T10:44:38;100635.28;;;4.30;100.00
23241;BME280;11789;53.482;9.862;2023-12-20T10:47:04;100642.09;;;4.30;100.00
23241;BME280;11789;53.482;9.862;2023-12-20T10:49:30;100630.88;;;4.25;100.00
23241;BME280;11789;53.482;9.862;2023-12-20T10:51:57;100636.94;;;4.27;100.00
23241;BME280;11789;53.482;9.862;2023-12-20T10:54:25;100628.41;;;4.28;100.00
23241;BME280;11789;53.482;9.862;2023-12-20T10:56:51;100619.91;;;4.29;100.00
23241;BME280;11789;53.482;9.862;2023-12-20T10:59:19;100613.06;;;4.29;100.00
23241;BME280;11789;53.482;9.862;2023-12-20T11:01:46;100606.22;;;4.27;100.00
23241;BME280;11789;53.482;9.862;2023-12-20T11:04:18;100612.97;;;4.25;100.00
23241;BME280;11789;53.482;9.862;2023-12-20T11:09:25;100600.28;;;4.29;100.00
23241;BME280;11789;53.482;9.862;2023-12-20T11:12:13;100604.56;;;4.30;100.00
23241;BME280;11789;53.482;9.862;2023-12-20T11:14:48;100599.53;;;4.33;100.00
23241;BME280;11789;53.482;9.862;2023-12-20T11:17:14;100595.28;;;4.35;100.00
23241;BME280;11789;53.482;9.862;2023-12-20T11:20:05;100594.41;;;4.35;100.00
23241;BME280;11789;53.482;9.862;2023-12-20T11:22:32;100597.84;;;4.35;100.00
23241;BME280;11789;53.482;9.862;2023-12-20T11:25:06;100591.91;;;4.36;100.00
23241;BME280;11789;53.482;9.862;2023-12-20T11:27:33;100603.88;;;4.37;100.00
23241;BME280;11789;53.482;9.862;2023-12-20T11:29:59;100597.03;;;4.36;100.00
23241;BME280;11789;53.482;9.862;2023-12-20T11:37:40;100607.69;;;4.58;100.00
23241;BME280;11789;53.482;9.862;2023-12-20T11:40:12;100608.56;;;4.58;100.00
23241;BME280;11789;53.482;9.862;2023-12-20T11:42:41;100615.47;;;4.62;100.00
23241;BME280;11789;53.482;9.862;2023-12-20T11:45:10;100617.31;;;4.71;100.00
23241;BME280;11789;53.482;9.862;2023-12-20T11:47:35;100612.34;;;4.79;100.00
23241;BME280;11789;53.482;9.862;2023-12-20T11:50:01;100612.34;;;4.79;100.00
23241;BME280;11789;53.482;9.862;2023-12-20T11:52:29;100603.03;;;4.82;100.00
23241;BME280;11789;53.482;9.862;2023-12-20T11:54:55;100612.53;;;4.88;100.00
23241;BME280;11789;53.482;9.862;2023-12-20T11:57:20;100609.38;;;5.03;100.00
23241;BME280;11789;53.482;9.862;2023-12-20T11:59:46;100612.97;;;5.12;100.00
23241;BME280;11789;53.482;9.862;2023-12-20T12:02:12;100609.50;;;5.10;100.00
23241;BME280;11789;53.482;9.862;2023-12-20T12:04:37;100618.75;;;5.02;100.00
23241;BME280;11789;53.482;9.862;2023-12-20T12:07:03;100617.00;;;5.00;100.00
23241;BME280;11789;53.482;9.862;2023-12-20T12:09:29;100602.31;;;4.91;100.00
23241;BME280;11789;53.482;9.862;2023-12-20T12:11:54;100611.59;;;4.84;100.00
23241;BME280;11789;53.482;9.862;2023-12-20T12:14:20;100618.25;;;4.76;100.00
23241;BME280;11789;53.482;9.862;2023-12-20T12:16:46;100614.75;;;4.71;100.00
23241;BME280;11789;53.482;9.862;2023-12-20T12:19:25;100621.56;;;4.69;100.00
23241;BME280;11789;53.482;9.862;2023-12-20T12:22:13;100604.44;;;4.66;100.00
23241;BME280;11789;53.482;9.862;2023-12-20T12:24:43;100606.09;;;4.63;100.00
23241;BME280;11789;53.482;9.862;2023-12-20T12:27:09;100600.97;;;4.64;100.00
23241;BME280;11789;53.482;9.862;2023-12-20T12:29:36;100594.13;;;4.63;100.00
23241;BME280;11789;53.482;9.862;2023-12-20T12:32:07;100601.00;;;4.66;100.00
23241;BME280;11789;53.482;9.862;2023-12-20T12:34:34;100601.91;;;4.68;100.00
23241;BME280;11789;53.482;9.862;2023-12-20T12:37:00;100604.50;;;4.71;100.00
23241;BME280;11789;53.482;9.862;2023-12-20T12:39:26;100599.47;;;4.74;100.00
23241;BME280;11789;53.482;9.862;2023-12-20T12:41:52;100603.78;;;4.77;100.00
23241;BME280;11789;53.482;9.862;2023-12-20T12:44:17;100615.75;;;4.78;100.00
23241;BME280;11789;53.482;9.862;2023-12-20T12:46:44;100604.66;;;4.77;100.00
23241;BME280;11789;53.482;9.862;2023-12-20T12:49:10;100609.78;;;4.77;100.00
23241;BME280;11789;53.482;9.862;2023-12-20T12:51:36;100609.78;;;4.77;100.00
23241;BME280;11789;53.482;9.862;2023-12-20T12:54:01;100618.34;;;4.79;100.00